sensor_id;sensor_type;location;lat;lon;timestamp;temperature;humidity
22633;DHT22;11483;55.828;37.488;2023-02-01T00:02:00;2.00;99.90
22633;DHT22;11483;55.828;37.488;2023-02-01T00:04:27;2.00;99.90
22633;DHT22;11483;55.828;37.488;2023-02-01T00:06:52;2.00;99.90
22633;DHT22;11483;55.828;37.488;2023-02-01T00:09:18;2.00;99.90
22633;DHT22;11483;55.828;37.488;2023-02-01T00:11:44;1.90;99.90
22633;DHT22;11483;55.828;37.488;2023-02-01T00:14:10;1.90;99.90
22633;DHT22;11483;55.828;37.488;2023-02-01T00:16:37;2.00;99.90
22633;DHT22;11483;55.828;37.488;2023-02-01T00:19:21;1.90;99.90
22633;DHT22;11483;55.828;37.488;2023-02-01T00:21:47;2.00;99.90
22633;DHT22;11483;55.828;37.488;2023-02-01T00:24:13;1.90;99.90
22633;DHT22;11483;55.828;37.488;2023-02-01T00:26:41;1.90;99.90
22633;DHT22;11483;55.828;37.488;2023-02-01T00:29:14;1.90;99.90
22633;DHT22;11483;55.828;37.488;2023-02-01T00:31:40;1.90;99.90
22633;DHT22;11483;55.828;37.488;2023-02-01T00:34:07;1.90;99.90
22633;DHT22;11483;55.828;37.488;2023-02-01T00:36:34;1.90;99.90
22633;DHT22;11483;55.828;37.488;2023-02-01T00:39:00;2.00;99.90
22633;DHT22;11483;55.828;37.488;2023-02-01T00:41:26;2.00;99.90
22633;DHT22;11483;55.828;37.488;2023-02-01T00:43:52;1.90;99.90
22633;DHT22;11483;55.828;37.488;2023-02-01T00:46:19;2.00;99.90
22633;DHT22;11483;55.828;37.488;2023-02-01T00:48:45;2.00;99.90
22633;DHT22;11483;55.828;37.488;2023-02-01T00:51:16;2.00;99.90
22633;DHT22;11483;55.828;37.488;2023-02-01T00:53:42;2.00;99.90
22633;DHT22;11483;55.828;37.488;2023-02-01T00:56:09;2.00;99.90
22633;DHT22;11483;55.828;37.488;2023-02-01T00:58:35;2.00;99.90
22633;DHT22;11483;55.828;37.488;2023-02-01T01:01:33;1.90;99.90
22633;DHT22;11483;55.828;37.488;2023-02-01T01:03:59;1.90;99.90
22633;DHT22;11483;55.828;37.488;2023-02-01T01:06:28;1.90;99.90
22633;DHT22;11483;55.828;37.488;2023-02-01T01:08:56;2.00;99.90
22633;DHT22;11483;55.828;37.488;2023-02-01T01:11:26;2.00;99.90
22633;DHT22;11483;55.828;37.488;2023-02-01T01:13:53;1.90;99.90
22633;DHT22;11483;55.828;37.488;2023-02-01T01:16:20;2.00;99.90
22633;DHT22;11483;55.828;37.488;2023-02-01T01:18:47;1.90;99.90
22633;DHT22;11483;55.828;37.488;2023-02-01T01:21:15;1.90;99.90
22633;DHT22;11483;55.828;37.488;2023-02-01T01:23:41;1.90;99.90
22633;DHT22;11483;55.828;37.488;2023-02-01T01:26:13;2.00;99.90
22633;DHT22;11483;55.828;37.488;2023-02-01T01:28:39;2.00;99.90
22633;DHT22;11483;55.828;37.488;2023-02-01T01:31:10;2.00;99.90
22633;DHT22;11483;55.828;37.488;2023-02-01T01:33:37;2.00;99.90
22633;DHT22;11483;55.828;37.488;2023-02-01T01:36:09;2.00;99.90
22633;DHT22;11483;55.828;37.488;2023-02-01T01:38:41;2.10;99.90
22633;DHT22;11483;55.828;37.488;2023-02-01T01:41:12;2.00;99.90
22633;DHT22;11483;55.828;37.488;2023-02-01T01:43:58;2.00;99.90
22633;DHT22;11483;55.828;37.488;2023-02-01T01:46:31;2.00;99.90
22633;DHT22;11483;55.828;37.488;2023-02-01T01:49:13;2.00;99.90
22633;DHT22;11483;55.828;37.488;2023-02-01T01:51:53;2.00;99.90
22633;DHT22;11483;55.828;37.488;2023-02-01T01:54:21;2.00;99.90
22633;DHT22;11483;55.828;37.488;2023-02-01T01:56:51;2.00;99.90
22633;DHT22;11483;55.828;37.488;2023-02-01T01:59:18;2.00;99.90
22633;DHT22;11483;55.828;37.488;2023-02-01T02:01:45;2.10;99.90
22633;DHT22;11483;55.828;37.488;2023-02-01T02:04:11;2.10;99.90
22633;DHT22;11483;55.828;37.488;2023-02-01T02:09:06;2.10;99.90
22633;DHT22;11483;55.828;37.488;2023-02-01T02:11:33;2.10;99.90
22633;DHT22;11483;55.828;37.488;2023-02-01T02:13:59;2.10;99.90
22633;DHT22;11483;55.828;37.488;2023-02-01T02:16:47;2.10;99.90
22633;DHT22;11483;55.828;37.488;2023-02-01T02:31:43;2.00;99.90
22633;DHT22;11483;55.828;37.488;2023-02-01T02:34:26;2.00;99.90
22633;DHT22;11483;55.828;37.488;2023-02-01T02:36:55;2.00;99.90
22633;DHT22;11483;55.828;37.488;2023-02-01T02:43:23;2.00;99.90
22633;DHT22;11483;55.828;37.488;2023-02-01T02:46:24;2.10;99.90
22633;DHT22;11483;55.828;37.488;2023-02-01T02:49:18;2.00;99.90
22633;DHT22;11483;55.828;37.488;2023-02-01T02:51:56;2.00;99.90
22633;DHT22;11483;55.828;37.488;2023-02-01T02:54:46;2.00;99.90
22633;DHT22;11483;55.828;37.488;2023-02-01T02:57:20;1.90;99.90
22633;DHT22;11483;55.828;37.488;2023-02-01T03:00:12;1.90;99.90
22633;DHT22;11483;55.828;37.488;2023-02-01T03:02:57;1.90;99.90
22633;DHT22;11483;55.828;37.488;2023-02-01T03:05:44;1.90;99.90
22633;DHT22;11483;55.828;37.488;2023-02-01T03:08:24;2.00;99.90
22633;DHT22;11483;55.828;37.488;2023-02-01T03:11:01;2.00;99.90
22633;DHT22;11483;55.828;37.488;2023-02-01T03:16:15;2.00;99.90
22633;DHT22;11483;55.828;37.488;2023-02-01T03:26:41;1.90;99.90
22633;DHT22;11483;55.828;37.488;2023-02-01T03:29:13;1.90;99.90
22633;DHT22;11483;55.828;37.488;2023-02-01T03:31:41;2.00;99.90
22633;DHT22;11483;55.828;37.488;2023-02-01T03:34:07;1.90;99.90
22633;DHT22;11483;55.828;37.488;2023-02-01T03:36:48;2.00;99.90
22633;DHT22;11483;55.828;37.488;2023-02-01T03:41:59;1.90;99.90
22633;DHT22;11483;55.828;37.488;2023-02-01T03:44:36;2.00;99.90
22633;DHT22;11483;55.828;37.488;2023-02-01T03:47:16;2.00;99.90
22633;DHT22;11483;55.828;37.488;2023-02-01T03:49:55;2.00;99.90
22633;DHT22;11483;55.828;37.488;2023-02-01T03:52:36;2.00;99.90
22633;DHT22;11483;55.828;37.488;2023-02-01T03:55:05;2.10;99.90
22633;DHT22;11483;55.828;37.488;2023-02-01T03:57:34;2.10;99.90
22633;DHT22;11483;55.828;37.488;2023-02-01T04:00:09;2.10;99.90
22633;DHT22;11483;55.828;37.488;2023-02-01T04:02:35;2.00;99.90
22633;DHT22;11483;55.828;37.488;2023-02-01T04:05:01;2.10;99.90
22633;DHT22;11483;55.828;37.488;2023-02-01T04:07:27;2.10;99.90
22633;DHT22;11483;55.828;37.488;2023-02-01T04:09:53;2.10;99.90
22633;DHT22;11483;55.828;37.488;2023-02-01T04:12:19;2.00;99.90
22633;DHT22;11483;55.828;37.488;2023-02-01T04:14:44;2.00;99.90
22633;DHT22;11483;55.828;37.488;2023-02-01T04:17:10;2.00;99.90
22633;DHT22;11483;55.828;37.488;2023-02-01T04:19:36;2.00;99.90
22633;DHT22;11483;55.828;37.488;2023-02-01T04:22:02;2.00;99.90
22633;DHT22;11483;55.828;37.488;2023-02-01T04:24:28;2.10;99.90
22633;DHT22;11483;55.828;37.488;2023-02-01T04:26:54;2.00;99.90
22633;DHT22;11483;55.828;37.488;2023-02-01T04:29:20;2.00;99.90
22633;DHT22;11483;55.828;37.488;2023-02-01T04:31:45;2.10;99.90
22633;DHT22;11483;55.828;37.488;2023-02-01T04:34:11;2.00;99.90
22633;DHT22;11483;55.828;37.488;2023-02-01T04:36:37;2.00;99.90
22633;DHT22;11483;55.828;37.488;2023-02-01T04:39:03;2.10;99.90
22633;DHT22;11483;55.828;37.488;2023-02-01T04:41:29;2.00;99.90
22633;DHT22;11483;55.828;37.488;2023-02-01T04:43:55;2.10;99.90
22633;DHT22;11483;55.828;37.488;2023-02-01T04:46:21;2.10;99.90
22633;DHT22;11483;55.828;37.488;2023-02-01T04:48:47;2.10;99.90
22633;DHT22;11483;55.828;37.488;2023-02-01T04:51:13;2.10;99.90
22633;DHT22;11483;55.828;37.488;2023-02-01T04:53:40;2.10;99.90
22633;DHT22;11483;55.828;37.488;2023-02-01T04:56:06;2.10;99.90
22633;DHT22;11483;55.828;37.488;2023-02-01T04:58:33;2.10;99.90
22633;DHT22;11483;55.828;37.488;2023-02-01T05:00:59;2.10;99.90
22633;DHT22;11483;55.828;37.488;2023-02-01T05:03:30;2.20;99.90
22633;DHT22;11483;55.828;37.488;2023-02-01T05:05:55;2.20;99.90
22633;DHT22;11483;55.828;37.488;2023-02-01T05:08:21;2.20;99.90
22633;DHT22;11483;55.828;37.488;2023-02-01T05:10:48;2.20;99.90
22633;DHT22;11483;55.828;37.488;2023-02-01T05:13:14;2.20;99.90
22633;DHT22;11483;55.828;37.488;2023-02-01T05:15:58;2.20;99.90
22633;DHT22;11483;55.828;37.488;2023-02-01T05:18:24;2.10;99.90
22633;DHT22;11483;55.828;37.488;2023-02-01T05:20:49;2.10;99.90
22633;DHT22;11483;55.828;37.488;2023-02-01T05:23:15;2.10;99.90
22633;DHT22;11483;55.828;37.488;2023-02-01T05:25:41;2.10;99.90
22633;DHT22;11483;55.828;37.488;2023-02-01T05:28:07;2.10;99.90
22633;DHT22;11483;55.828;37.488;2023-02-01T05:30:33;2.10;99.90
22633;DHT22;11483;55.828;37.488;2023-02-01T05:33:01;2.10;99.90
22633;DHT22;11483;55.828;37.488;2023-02-01T05:35:27;2.10;99.90
22633;DHT22;11483;55.828;37.488;2023-02-01T05:37:53;2.10;99.90
22633;DHT22;11483;55.828;37.488;2023-02-01T05:40:18;2.10;99.90
22633;DHT22;11483;55.828;37.488;2023-02-01T05:42:44;2.10;99.90
22633;DHT22;11483;55.828;37.488;2023-02-01T05:45:11;2.10;99.90
22633;DHT22;11483;55.828;37.488;2023-02-01T05:47:37;2.10;99.90
22633;DHT22;11483;55.828;37.488;2023-02-01T05:50:03;2.20;99.90
22633;DHT22;11483;55.828;37.488;2023-02-01T05:52:30;2.20;99.90
22633;DHT22;11483;55.828;37.488;2023-02-01T05:54:56;2.20;99.90
22633;DHT22;11483;55.828;37.488;2023-02-01T05:57:22;2.20;99.90
22633;DHT22;11483;55.828;37.488;2023-02-01T05:59:48;2.10;99.90
22633;DHT22;11483;55.828;37.488;2023-02-01T06:02:15;2.10;99.90
22633;DHT22;11483;55.828;37.488;2023-02-01T06:04:41;2.00;99.90
22633;DHT22;11483;55.828;37.488;2023-02-01T06:07:08;1.90;99.90
22633;DHT22;11483;55.828;37.488;2023-02-01T06:09:35;1.90;99.90
22633;DHT22;11483;55.828;37.488;2023-02-01T06:12:01;1.90;99.90
22633;DHT22;11483;55.828;37.488;2023-02-01T06:14:27;1.90;99.90
22633;DHT22;11483;55.828;37.488;2023-02-01T06:16:54;1.90;99.90
22633;DHT22;11483;55.828;37.488;2023-02-01T06:19:21;1.90;99.90
22633;DHT22;11483;55.828;37.488;2023-02-01T06:21:47;1.90;99.90
22633;DHT22;11483;55.828;37.488;2023-02-01T06:24:13;1.90;99.90
22633;DHT22;11483;55.828;37.488;2023-02-01T06:26:39;1.90;99.90
22633;DHT22;11483;55.828;37.488;2023-02-01T06:29:06;2.00;99.90
22633;DHT22;11483;55.828;37.488;2023-02-01T06:31:33;1.90;99.90
22633;DHT22;11483;55.828;37.488;2023-02-01T06:33:59;2.00;99.90
22633;DHT22;11483;55.828;37.488;2023-02-01T06:36:24;2.00;99.90
22633;DHT22;11483;55.828;37.488;2023-02-01T06:38:50;2.00;99.90
22633;DHT22;11483;55.828;37.488;2023-02-01T06:41:17;2.10;99.90
22633;DHT22;11483;55.828;37.488;2023-02-01T06:43:43;1.90;99.90
22633;DHT22;11483;55.828;37.488;2023-02-01T06:46:11;2.00;99.90
22633;DHT22;11483;55.828;37.488;2023-02-01T06:48:38;2.10;99.90
22633;DHT22;11483;55.828;37.488;2023-02-01T06:51:04;2.10;99.90
22633;DHT22;11483;55.828;37.488;2023-02-01T06:53:30;2.10;99.90
22633;DHT22;11483;55.828;37.488;2023-02-01T06:55:59;2.10;99.90
22633;DHT22;11483;55.828;37.488;2023-02-01T06:58:29;2.10;99.90
22633;DHT22;11483;55.828;37.488;2023-02-01T07:00:55;2.10;99.90
22633;DHT22;11483;55.828;37.488;2023-02-01T07:03:20;2.10;99.90
22633;DHT22;11483;55.828;37.488;2023-02-01T07:05:46;2.10;99.90
22633;DHT22;11483;55.828;37.488;2023-02-01T07:08:12;2.20;99.90
22633;DHT22;11483;55.828;37.488;2023-02-01T07:10:38;2.20;99.90
22633;DHT22;11483;55.828;37.488;2023-02-01T07:13:04;2.10;99.90
22633;DHT22;11483;55.828;37.488;2023-02-01T07:15:30;2.10;99.90
22633;DHT22;11483;55.828;37.488;2023-02-01T07:17:56;2.10;99.90
22633;DHT22;11483;55.828;37.488;2023-02-01T07:20:23;2.10;99.90
22633;DHT22;11483;55.828;37.488;2023-02-01T07:22:48;2.10;99.90
22633;DHT22;11483;55.828;37.488;2023-02-01T07:25:19;2.10;99.90
22633;DHT22;11483;55.828;37.488;2023-02-01T07:27:45;2.10;99.90
22633;DHT22;11483;55.828;37.488;2023-02-01T07:30:12;2.10;99.90
22633;DHT22;11483;55.828;37.488;2023-02-01T07:32:38;2.10;99.90
22633;DHT22;11483;55.828;37.488;2023-02-01T07:35:04;2.10;99.90
22633;DHT22;11483;55.828;37.488;2023-02-01T07:37:30;2.10;99.90
22633;DHT22;11483;55.828;37.488;2023-02-01T07:39:56;2.00;99.90
22633;DHT22;11483;55.828;37.488;2023-02-01T07:42:22;2.00;99.90
22633;DHT22;11483;55.828;37.488;2023-02-01T07:44:48;2.00;99.90
22633;DHT22;11483;55.828;37.488;2023-02-01T07:47:14;2.00;99.90
22633;DHT22;11483;55.828;37.488;2023-02-01T07:49:39;2.10;99.90
22633;DHT22;11483;55.828;37.488;2023-02-01T07:52:05;2.10;99.90
22633;DHT22;11483;55.828;37.488;2023-02-01T07:54:31;2.10;99.90
22633;DHT22;11483;55.828;37.488;2023-02-01T07:56:57;2.10;99.90
22633;DHT22;11483;55.828;37.488;2023-02-01T07:59:23;2.20;99.90
22633;DHT22;11483;55.828;37.488;2023-02-01T08:01:48;2.20;99.90
22633;DHT22;11483;55.828;37.488;2023-02-01T08:04:14;2.20;99.90
22633;DHT22;11483;55.828;37.488;2023-02-01T08:06:40;2.20;99.90
22633;DHT22;11483;55.828;37.488;2023-02-01T08:09:07;2.20;99.90
22633;DHT22;11483;55.828;37.488;2023-02-01T08:11:37;2.20;99.90
22633;DHT22;11483;55.828;37.488;2023-02-01T08:14:04;2.20;99.90
22633;DHT22;11483;55.828;37.488;2023-02-01T08:16:29;2.30;99.90
22633;DHT22;11483;55.828;37.488;2023-02-01T08:18:56;2.20;99.90
22633;DHT22;11483;55.828;37.488;2023-02-01T08:21:25;2.20;99.90
22633;DHT22;11483;55.828;37.488;2023-02-01T08:23:51;2.20;99.90
22633;DHT22;11483;55.828;37.488;2023-02-01T08:26:18;2.30;99.90
22633;DHT22;11483;55.828;37.488;2023-02-01T08:28:47;2.30;99.90
22633;DHT22;11483;55.828;37.488;2023-02-01T08:31:16;2.40;99.90
22633;DHT22;11483;55.828;37.488;2023-02-01T08:33:43;2.40;99.90
22633;DHT22;11483;55.828;37.488;2023-02-01T08:36:10;2.40;99.90
22633;DHT22;11483;55.828;37.488;2023-02-01T08:38:38;2.50;99.90
22633;DHT22;11483;55.828;37.488;2023-02-01T08:41:13;2.40;99.90
22633;DHT22;11483;55.828;37.488;2023-02-01T08:43:39;2.40;99.90
22633;DHT22;11483;55.828;37.488;2023-02-01T08:46:06;2.40;99.90
22633;DHT22;11483;55.828;37.488;2023-02-01T08:48:33;2.40;99.90
22633;DHT22;11483;55.828;37.488;2023-02-01T08:51:08;2.40;99.90
22633;DHT22;11483;55.828;37.488;2023-02-01T08:53:35;2.40;99.90
22633;DHT22;11483;55.828;37.488;2023-02-01T08:56:02;2.40;99.90
22633;DHT22;11483;55.828;37.488;2023-02-01T08:58:28;2.40;99.90
22633;DHT22;11483;55.828;37.488;2023-02-01T09:00:54;2.30;99.90
22633;DHT22;11483;55.828;37.488;2023-02-01T09:03:20;2.30;99.90
22633;DHT22;11483;55.828;37.488;2023-02-01T09:05:46;2.40;99.90
22633;DHT22;11483;55.828;37.488;2023-02-01T09:08:13;2.40;99.90
22633;DHT22;11483;55.828;37.488;2023-02-01T09:10:41;2.50;99.90
22633;DHT22;11483;55.828;37.488;2023-02-01T09:13:08;2.50;99.90
22633;DHT22;11483;55.828;37.488;2023-02-01T09:15:34;2.60;99.90
22633;DHT22;11483;55.828;37.488;2023-02-01T09:18:00;2.70;99.90
22633;DHT22;11483;55.828;37.488;2023-02-01T09:20:26;2.70;99.90
22633;DHT22;11483;55.828;37.488;2023-02-01T09:22:52;2.70;99.90
22633;DHT22;11483;55.828;37.488;2023-02-01T09:25:18;2.60;99.90
22633;DHT22;11483;55.828;37.488;2023-02-01T09:27:45;2.70;99.90
22633;DHT22;11483;55.828;37.488;2023-02-01T09:30:11;2.70;99.90
22633;DHT22;11483;55.828;37.488;2023-02-01T09:32:37;2.70;99.90
22633;DHT22;11483;55.828;37.488;2023-02-01T09:35:03;2.70;99.90
22633;DHT22;11483;55.828;37.488;2023-02-01T09:37:29;2.90;99.90
22633;DHT22;11483;55.828;37.488;2023-02-01T09:39:55;3.00;99.90
22633;DHT22;11483;55.828;37.488;2023-02-01T09:47:58;3.60;99.90
22633;DHT22;11483;55.828;37.488;2023-02-01T09:50:35;3.60;99.90
22633;DHT22;11483;55.828;37.488;2023-02-01T09:53:22;3.70;99.90
22633;DHT22;11483;55.828;37.488;2023-02-01T09:55:53;3.50;99.90
22633;DHT22;11483;55.828;37.488;2023-02-01T09:58:25;3.20;99.90
22633;DHT22;11483;55.828;37.488;2023-02-01T10:00:57;3.00;99.90
22633;DHT22;11483;55.828;37.488;2023-02-01T10:03:26;2.90;99.90
22633;DHT22;11483;55.828;37.488;2023-02-01T10:06:07;2.80;99.90
22633;DHT22;11483;55.828;37.488;2023-02-01T10:22:39;2.50;99.90
22633;DHT22;11483;55.828;37.488;2023-02-01T10:25:15;2.50;99.90
22633;DHT22;11483;55.828;37.488;2023-02-01T10:27:43;2.40;99.90
22633;DHT22;11483;55.828;37.488;2023-02-01T10:32:40;2.50;99.90
22633;DHT22;11483;55.828;37.488;2023-02-01T10:35:15;2.50;99.90
22633;DHT22;11483;55.828;37.488;2023-02-01T10:37:42;2.50;99.90
22633;DHT22;11483;55.828;37.488;2023-02-01T10:40:21;2.50;99.90
22633;DHT22;11483;55.828;37.488;2023-02-01T10:42:50;2.50;99.90
22633;DHT22;11483;55.828;37.488;2023-02-01T10:45:22;2.40;99.90
22633;DHT22;11483;55.828;37.488;2023-02-01T10:47:51;2.40;99.90
22633;DHT22;11483;55.828;37.488;2023-02-01T10:53:00;2.50;99.90
22633;DHT22;11483;55.828;37.488;2023-02-01T10:58:05;2.60;99.90
22633;DHT22;11483;55.828;37.488;2023-02-01T11:00:43;2.50;99.90
22633;DHT22;11483;55.828;37.488;2023-02-01T11:05:55;2.50;99.90
22633;DHT22;11483;55.828;37.488;2023-02-01T11:08:22;2.50;99.90
22633;DHT22;11483;55.828;37.488;2023-02-01T11:11:00;2.50;99.90
22633;DHT22;11483;55.828;37.488;2023-02-01T11:13:38;2.40;99.90
22633;DHT22;11483;55.828;37.488;2023-02-01T11:16:05;2.40;99.90
22633;DHT22;11483;55.828;37.488;2023-02-01T11:18:35;2.40;99.90
22633;DHT22;11483;55.828;37.488;2023-02-01T11:21:03;2.40;99.90
22633;DHT22;11483;55.828;37.488;2023-02-01T11:23:31;2.40;99.90
22633;DHT22;11483;55.828;37.488;2023-02-01T11:26:12;2.40;99.90
22633;DHT22;11483;55.828;37.488;2023-02-01T11:28:50;2.40;99.90
22633;DHT22;11483;55.828;37.488;2023-02-01T11:31:16;2.40;99.90
22633;DHT22;11483;55.828;37.488;2023-02-01T11:34:31;2.50;99.90
22633;DHT22;11483;55.828;37.488;2023-02-01T11:36:37;2.60;99.90
22633;DHT22;11483;55.828;37.488;2023-02-01T11:41:54;2.50;99.90
22633;DHT22;11483;55.828;37.488;2023-02-01T11:44:42;2.40;99.90
22633;DHT22;11483;55.828;37.488;2023-02-01T11:47:30;2.30;99.90
22633;DHT22;11483;55.828;37.488;2023-02-01T11:50:14;2.30;99.90
22633;DHT22;11483;55.828;37.488;2023-02-01T12:01:08;2.20;99.90
22633;DHT22;11483;55.828;37.488;2023-02-01T12:04:52;2.20;99.90
22633;DHT22;11483;55.828;37.488;2023-02-01T12:07:01;2.10;99.90
22633;DHT22;11483;55.828;37.488;2023-02-01T12:10:04;2.10;99.90
22633;DHT22;11483;55.828;37.488;2023-02-01T12:12:45;2.10;99.90
22633;DHT22;11483;55.828;37.488;2023-02-01T12:15:40;2.00;99.90
22633;DHT22;11483;55.828;37.488;2023-02-01T12:46:20;1.90;99.90
22633;DHT22;11483;55.828;37.488;2023-02-01T12:51:37;2.00;99.90
22633;DHT22;11483;55.828;37.488;2023-02-01T12:56:55;2.00;99.90
22633;DHT22;11483;55.828;37.488;2023-02-01T12:59:29;2.00;99.90
22633;DHT22;11483;55.828;37.488;2023-02-01T13:04:59;2.00;99.90
22633;DHT22;11483;55.828;37.488;2023-02-01T13:08:10;2.10;99.90
22633;DHT22;11483;55.828;37.488;2023-02-01T13:11:03;2.10;99.90
22633;DHT22;11483;55.828;37.488;2023-02-01T13:13:32;2.00;99.90
22633;DHT22;11483;55.828;37.488;2023-02-01T13:16:23;2.00;99.90
22633;DHT22;11483;55.828;37.488;2023-02-01T13:21:46;2.00;99.90
22633;DHT22;11483;55.828;37.488;2023-02-01T13:26:54;2.00;99.90
22633;DHT22;11483;55.828;37.488;2023-02-01T13:29:21;2.00;99.90
22633;DHT22;11483;55.828;37.488;2023-02-01T13:40:23;2.00;99.90
22633;DHT22;11483;55.828;37.488;2023-02-01T13:43:00;2.00;99.90
22633;DHT22;11483;55.828;37.488;2023-02-01T13:45:33;2.00;99.90
22633;DHT22;11483;55.828;37.488;2023-02-01T13:48:04;2.00;99.90
22633;DHT22;11483;55.828;37.488;2023-02-01T13:50:37;2.00;99.90
22633;DHT22;11483;55.828;37.488;2023-02-01T13:55:45;2.10;99.90
22633;DHT22;11483;55.828;37.488;2023-02-01T13:58:22;2.00;99.90
22633;DHT22;11483;55.828;37.488;2023-02-01T14:00:49;2.10;99.90
22633;DHT22;11483;55.828;37.488;2023-02-01T14:03:20;2.10;99.90
22633;DHT22;11483;55.828;37.488;2023-02-01T14:08:16;2.10;99.90
22633;DHT22;11483;55.828;37.488;2023-02-01T14:10:48;2.10;99.90
22633;DHT22;11483;55.828;37.488;2023-02-01T14:13:37;2.10;99.90
22633;DHT22;11483;55.828;37.488;2023-02-01T14:18:57;2.00;99.90
22633;DHT22;11483;55.828;37.488;2023-02-01T14:21:34;2.10;99.90
22633;DHT22;11483;55.828;37.488;2023-02-01T14:29:29;2.10;99.90
22633;DHT22;11483;55.828;37.488;2023-02-01T14:47:38;1.90;99.90
22633;DHT22;11483;55.828;37.488;2023-02-01T14:52:38;2.00;99.90
22633;DHT22;11483;55.828;37.488;2023-02-01T14:55:24;1.90;99.90
22633;DHT22;11483;55.828;37.488;2023-02-01T14:57:55;1.90;99.90
22633;DHT22;11483;55.828;37.488;2023-02-01T15:00:25;1.90;99.90
22633;DHT22;11483;55.828;37.488;2023-02-01T15:02:53;1.90;99.90
22633;DHT22;11483;55.828;37.488;2023-02-01T15:07:49;1.90;99.90
22633;DHT22;11483;55.828;37.488;2023-02-01T15:10:15;1.90;99.90
22633;DHT22;11483;55.828;37.488;2023-02-01T15:12:42;1.90;99.90
22633;DHT22;11483;55.828;37.488;2023-02-01T15:17:40;1.90;99.90
22633;DHT22;11483;55.828;37.488;2023-02-01T15:20:16;1.90;99.90
22633;DHT22;11483;55.828;37.488;2023-02-01T15:22:58;1.90;99.90
22633;DHT22;11483;55.828;37.488;2023-02-01T15:25:45;1.90;99.90
22633;DHT22;11483;55.828;37.488;2023-02-01T15:28:15;1.80;99.90
22633;DHT22;11483;55.828;37.488;2023-02-01T15:33:18;1.80;99.90
22633;DHT22;11483;55.828;37.488;2023-02-01T15:35:50;1.80;99.90
22633;DHT22;11483;55.828;37.488;2023-02-01T15:41:01;1.90;99.90
22633;DHT22;11483;55.828;37.488;2023-02-01T15:43:29;1.90;99.90
22633;DHT22;11483;55.828;37.488;2023-02-01T15:45:58;1.80;99.90
22633;DHT22;11483;55.828;37.488;2023-02-01T15:48:26;1.80;99.90
22633;DHT22;11483;55.828;37.488;2023-02-01T15:50:53;1.90;99.90
22633;DHT22;11483;55.828;37.488;2023-02-01T15:53:24;1.90;99.90
22633;DHT22;11483;55.828;37.488;2023-02-01T15:55:55;1.80;99.90
22633;DHT22;11483;55.828;37.488;2023-02-01T15:58:23;1.80;99.90
22633;DHT22;11483;55.828;37.488;2023-02-01T16:00:56;1.80;99.90
22633;DHT22;11483;55.828;37.488;2023-02-01T16:03:32;1.90;99.90
22633;DHT22;11483;55.828;37.488;2023-02-01T16:06:01;1.80;99.90
22633;DHT22;11483;55.828;37.488;2023-02-01T16:08:30;1.80;99.90
22633;DHT22;11483;55.828;37.488;2023-02-01T16:13:40;1.80;99.90
22633;DHT22;11483;55.828;37.488;2023-02-01T16:16:08;1.80;99.90
22633;DHT22;11483;55.828;37.488;2023-02-01T16:18:40;1.80;99.90
22633;DHT22;11483;55.828;37.488;2023-02-01T16:21:06;1.80;99.90
22633;DHT22;11483;55.828;37.488;2023-02-01T16:23:36;1.80;99.90
22633;DHT22;11483;55.828;37.488;2023-02-01T16:26:05;1.80;99.90
22633;DHT22;11483;55.828;37.488;2023-02-01T16:28:32;1.80;99.90
22633;DHT22;11483;55.828;37.488;2023-02-01T16:30:59;1.80;99.90
22633;DHT22;11483;55.828;37.488;2023-02-01T16:33:26;1.70;99.90
22633;DHT22;11483;55.828;37.488;2023-02-01T16:35:52;1.70;99.90
22633;DHT22;11483;55.828;37.488;2023-02-01T16:38:21;1.60;99.90
22633;DHT22;11483;55.828;37.488;2023-02-01T16:40:49;1.70;99.90
22633;DHT22;11483;55.828;37.488;2023-02-01T16:43:21;1.60;99.90
22633;DHT22;11483;55.828;37.488;2023-02-01T16:45:48;1.70;99.90
22633;DHT22;11483;55.828;37.488;2023-02-01T16:50:46;1.60;99.90
22633;DHT22;11483;55.828;37.488;2023-02-01T16:53:14;1.60;99.90
22633;DHT22;11483;55.828;37.488;2023-02-01T16:55:41;1.60;99.90
22633;DHT22;11483;55.828;37.488;2023-02-01T16:58:09;1.60;99.90
22633;DHT22;11483;55.828;37.488;2023-02-01T17:00:35;1.60;99.90
22633;DHT22;11483;55.828;37.488;2023-02-01T17:03:05;1.60;99.90
22633;DHT22;11483;55.828;37.488;2023-02-01T17:05:34;1.60;99.90
22633;DHT22;11483;55.828;37.488;2023-02-01T17:08:05;1.60;99.90
22633;DHT22;11483;55.828;37.488;2023-02-01T17:10:32;1.60;99.90
22633;DHT22;11483;55.828;37.488;2023-02-01T17:12:57;1.50;99.90
22633;DHT22;11483;55.828;37.488;2023-02-01T17:15:26;1.50;99.90
22633;DHT22;11483;55.828;37.488;2023-02-01T17:17:53;1.50;99.90
22633;DHT22;11483;55.828;37.488;2023-02-01T17:20:24;1.40;99.90
22633;DHT22;11483;55.828;37.488;2023-02-01T17:22:52;1.50;99.90
22633;DHT22;11483;55.828;37.488;2023-02-01T17:25:20;1.60;99.90
22633;DHT22;11483;55.828;37.488;2023-02-01T17:27:47;1.50;99.90
22633;DHT22;11483;55.828;37.488;2023-02-01T17:30:14;1.60;99.90
22633;DHT22;11483;55.828;37.488;2023-02-01T17:32:41;1.50;99.90
22633;DHT22;11483;55.828;37.488;2023-02-01T17:35:27;1.60;99.90
22633;DHT22;11483;55.828;37.488;2023-02-01T17:37:53;1.60;99.90
22633;DHT22;11483;55.828;37.488;2023-02-01T17:40:19;1.60;99.90
22633;DHT22;11483;55.828;37.488;2023-02-01T17:42:45;1.60;99.90
22633;DHT22;11483;55.828;37.488;2023-02-01T17:47:56;1.60;99.90
22633;DHT22;11483;55.828;37.488;2023-02-01T17:50:25;1.50;99.90
22633;DHT22;11483;55.828;37.488;2023-02-01T17:52:51;1.50;99.90
22633;DHT22;11483;55.828;37.488;2023-02-01T17:55:19;1.60;99.90
22633;DHT22;11483;55.828;37.488;2023-02-01T17:57:48;1.60;99.90
22633;DHT22;11483;55.828;37.488;2023-02-01T18:00:15;1.60;99.90
22633;DHT22;11483;55.828;37.488;2023-02-01T18:02:41;1.50;99.90
22633;DHT22;11483;55.828;37.488;2023-02-01T18:05:38;1.60;99.90
22633;DHT22;11483;55.828;37.488;2023-02-01T18:08:05;1.50;99.90
22633;DHT22;11483;55.828;37.488;2023-02-01T18:10:31;1.50;99.90
22633;DHT22;11483;55.828;37.488;2023-02-01T18:12:57;1.50;99.90
22633;DHT22;11483;55.828;37.488;2023-02-01T18:15:24;1.50;99.90
22633;DHT22;11483;55.828;37.488;2023-02-01T18:17:50;1.60;99.90
22633;DHT22;11483;55.828;37.488;2023-02-01T18:20:21;1.50;99.90
22633;DHT22;11483;55.828;37.488;2023-02-01T18:22:48;1.40;99.90
22633;DHT22;11483;55.828;37.488;2023-02-01T18:25:15;1.40;99.90
22633;DHT22;11483;55.828;37.488;2023-02-01T18:27:41;1.50;99.90
22633;DHT22;11483;55.828;37.488;2023-02-01T18:30:09;1.50;99.90
22633;DHT22;11483;55.828;37.488;2023-02-01T18:32:35;1.50;99.90
22633;DHT22;11483;55.828;37.488;2023-02-01T18:35:01;1.50;99.90
22633;DHT22;11483;55.828;37.488;2023-02-01T18:37:27;1.40;99.90
22633;DHT22;11483;55.828;37.488;2023-02-01T18:39:52;1.40;99.90
22633;DHT22;11483;55.828;37.488;2023-02-01T18:42:18;1.40;99.90